WetterOnline ( https://www.wetteronline.de )

Wetter aktuell Jagel

Aktuelles Wetter: Schleswig (48m)

6-stündlich | Neueste Meldungen
Ortszeit Temperatur Wetter
Mo, 23.09. 8:00 13.8° C wolkig
Mo, 23.09. 2:00 13.7° C fast wolkenlos
So, 22.09. 20:00 15.9° C wolkig
So, 22.09. 14:00 20.6° C fast wolkenlos
So, 22.09. 8:00 9.7° C fast wolkenlos
So, 22.09. 2:00 11.0° C wolkenlos
Sa, 21.09. 20:00 14.9° C wolkenlos
Sa, 21.09. 14:00 19.8° C leicht bewölkt
Ortszeit Temperatur Wetter
Mo, 23.09. 12:30 17.6° C leicht bewölkt
Mo, 23.09. 12:20 17.6° C leicht bewölkt
Mo, 23.09. 12:10 17.9° C leicht bewölkt
Mo, 23.09. 12:00 17.6° C leicht bewölkt
Mo, 23.09. 11:50 17.6° C leicht bewölkt
Mo, 23.09. 11:40 17.7° C leicht bewölkt
Mo, 23.09. 11:30 17.1° C leicht bewölkt
Mo, 23.09. 11:00 17.0° C leicht bewölkt
Ortszeit Relative Feuchte Sichtweite
Mo, 23.09. 8:00 94% 10 km
Mo, 23.09. 2:00 89% 30 km
So, 22.09. 20:00 75% 45 km
So, 22.09. 14:00 50% 35 km
So, 22.09. 8:00 99% 9 km
So, 22.09. 2:00 100% 4.8 km
Sa, 21.09. 20:00 90% 45 km
Sa, 21.09. 14:00 65% 35 km
Ortszeit Relative Feuchte Sichtweite
Mo, 23.09. 12:30 75% 30 km
Mo, 23.09. 12:20 75% -
Mo, 23.09. 12:10 74% -
Mo, 23.09. 12:00 77% 30 km
Mo, 23.09. 11:50 77% -
Mo, 23.09. 11:40 77% -
Mo, 23.09. 11:30 78% 30 km
Mo, 23.09. 11:00 79% 30 km
Ortszeit Niederschlagsmenge Niederschlagsart
Mo, 23.09. 8:00 0.0 l/m2 in 12 Std. -
Mo, 23.09. 2:00 0.0 l/m2 in 6 Std. -
So, 22.09. 20:00 0.0 l/m2 in 12 Std. -
So, 22.09. 14:00 0.0 l/m2 in 6 Std. -
So, 22.09. 8:00 0.1 l/m2 in 12 Std. Nebel
So, 22.09. 2:00 0.0 l/m2 in 6 Std. -
Sa, 21.09. 20:00 0.0 l/m2 in 12 Std. -
Sa, 21.09. 14:00 0.0 l/m2 in 6 Std. -
Ortszeit Niederschlagsmenge Niederschlagsart
Mo, 23.09. 12:30 0.0 l/m2 in 1 Std. -
Mo, 23.09. 12:20 keine Meldung -
Mo, 23.09. 12:10 keine Meldung -
Mo, 23.09. 12:00 0.0 l/m2 in 1 Std. -
Mo, 23.09. 11:50 keine Meldung -
Mo, 23.09. 11:40 keine Meldung -
Mo, 23.09. 11:30 0.0 l/m2 in 1 Std. -
Mo, 23.09. 11:00 0.0 l/m2 in 1 Std. -
Ortszeit Stärke Spitze Richtung
km/h Bft. km/h Grad Sektor
Mo, 23.09. 8:00 17 3 37 90° O
Mo, 23.09. 2:00 11 2 25 80° O
So, 22.09. 20:00 11 2 29 80° O
So, 22.09. 14:00 18 3 29 100° O
So, 22.09. 8:00 7 2 11 110° O
So, 22.09. 2:00 7 2 9 90° O
Sa, 21.09. 20:00 4 1 22 360° N
Sa, 21.09. 14:00 9 2 31 270° W
Ortszeit Stärke Spitze Richtung
km/h Bft. km/h Grad Sektor
Mo, 23.09. 12:30 17 3 24 100° O
Mo, 23.09. 12:20 17 3 - 100° O
Mo, 23.09. 12:10 14 3 - 100° O
Mo, 23.09. 12:00 14 3 29 80° O
Mo, 23.09. 11:50 14 3 - 80° O
Mo, 23.09. 11:40 13 3 - 80° O
Mo, 23.09. 11:30 17 3 28 90° O
Mo, 23.09. 11:00 18 3 32 80° O
Ortszeit Untergrenze Bedeckung Gattung
total tief tief mittel hoch
Mo, 23.09. 8:00 180 m 6/8 3/8 St - Ci
Mo, 23.09. 2:00 8400 m 2/8 0/8 - - -
So, 22.09. 20:00 9000 m 7/8 0/8 - - -
So, 22.09. 14:00 9000 m 1/8 0/8 - - Ci
So, 22.09. 8:00 9000 m 1/8 0/8 - - Ci
So, 22.09. 2:00 - 0/8 0/8 - - -
Sa, 21.09. 20:00 - 0/8 0/8 - - -
Sa, 21.09. 14:00 600 m 3/8 1/8 Cu - Ci
Ortszeit Bedeckungsgrad in Achtel und Wolkenuntergrenze
Mo, 23.09. 12:30 1(390m) 4(9000m)
Mo, 23.09. 12:20 6(12000m)
Mo, 23.09. 12:10 2(6900m) 5(12000m)
Mo, 23.09. 12:00 1(330m) 5(9000m)
Mo, 23.09. 11:50 1(330m) 5(6900m) 6(9000m)
Mo, 23.09. 11:40 2(330m) 4(6900m) 5(12000m)
Mo, 23.09. 11:30 2(330m) 5(9000m) 2(12000m)
Mo, 23.09. 11:00 2(300m) 5(9000m)
Ortszeit Luftdruck NN (hPa) Tendenz (hPa in 3 Std.)
Mo, 23.09. 8:00 1013 + 0,8
Mo, 23.09. 2:00 1012 + 0,5
So, 22.09. 20:00 1011 + 0,1
So, 22.09. 14:00 1012 - 1,7
So, 22.09. 8:00 1015 - 0,9
So, 22.09. 2:00 1017 - 0,9
Sa, 21.09. 20:00 1019 - 1,0
Sa, 21.09. 14:00 1022 - 0,9
Ortszeit Luftdruck NN (hPa) Tendenz (hPa in 3 Std.)
Mo, 23.09. 12:30 1013 + 0,4
Mo, 23.09. 12:20 1013 keine Meldung
Mo, 23.09. 12:10 1013 keine Meldung
Mo, 23.09. 12:00 1013 + 0,7
Mo, 23.09. 11:50 1013 keine Meldung
Mo, 23.09. 11:40 1014 keine Meldung
Mo, 23.09. 11:30 1014 + 0,9
Mo, 23.09. 11:00 1014 + 1,0
Ortszeit Schneehöhe (cm)
Mo, 23.09. 8:00 0
Mo, 23.09. 2:00 -
So, 22.09. 20:00 -
So, 22.09. 14:00 0
So, 22.09. 8:00 0
So, 22.09. 2:00 -
Sa, 21.09. 20:00 -
Sa, 21.09. 14:00 0
Ortszeit Schneehöhe (cm)
Mo, 23.09. 12:30 -
Mo, 23.09. 12:20 -
Mo, 23.09. 12:10 -
Mo, 23.09. 12:00 -
Mo, 23.09. 11:50 -
Mo, 23.09. 11:40 -
Mo, 23.09. 11:30 -
Mo, 23.09. 11:00 -
Link zu dieser Seite / Seite empfehlen

Das Wetter in ...